Station History

Weather Underground - logo

Station Historical Data
Daily Summary for January 24, 2018 Units:  Both    English   Metric
« Previous Day
Next Day »
Daily Weekly Monthly Yearly Custom
  High: Low: Average:
Temperature: 66.6 °F /  19.2 °C 34.2 °F /  1.2 °C 50.6 °F /  10.3 °C
Dew Point: 48.0 °F /  8.9 °C 32.9 °F /  0.5 °C 41.6 °F /  5.3 °C
Humidity: 97 % 41 % 74 %
Wind Speed: 6.9 mph /  11.1 km/h - 0.5 mph /  0.8 km/h
Wind Gust: 6.9 mph /  11.1 km/h - -
Wind:- - WSW
Pressure: 30.22 in /  1023.2 hPa 30.01 in /  1016.1 hPa -
Precipitation: 0.01 in /  0.25 mm    
Historical Graphs
 
 
Tabular Data for January 24, 2018
Time Temperature Dew Point Pressure Wind Wind Speed Wind Gust Humidity Rainfall Rate (Hourly)
00:04 39.3 °F /  4.1 °C 37.7 °F /  3.2 °C 30.22 in /  1023.2 hPa Calm     94 % 0.00 in /  0 mm
00:14 39.4 °F /  4.1 °C 37.8 °F /  3.2 °C 30.22 in /  1023.2 hPa Calm     94 % 0.00 in /  0 mm
00:19 39.0 °F /  3.9 °C 37.1 °F /  2.8 °C 30.21 in /  1022.9 hPa Calm     93 % 0.00 in /  0 mm
00:24 39.0 °F /  3.9 °C 37.4 °F /  3 °C 30.21 in /  1022.9 hPa Calm     94 % 0.00 in /  0 mm
00:29 38.9 °F /  3.8 °C 37.3 °F /  2.9 °C 30.21 in /  1022.9 hPa Calm     94 % 0.00 in /  0 mm
00:34 39.0 °F /  3.9 °C 37.4 °F /  3 °C 30.21 in /  1022.9 hPa Calm     94 % 0.00 in /  0 mm
00:39 39.1 °F /  3.9 °C 37.5 °F /  3.1 °C 30.21 in /  1022.9 hPa Calm     94 % 0.00 in /  0 mm
00:44 39.2 °F /  4 °C 37.6 °F /  3.1 °C 30.20 in /  1022.6 hPa Calm     94 % 0.00 in /  0 mm
00:50 38.7 °F /  3.7 °C 37.1 °F /  2.8 °C 30.20 in /  1022.6 hPa Calm     94 % 0.00 in /  0 mm
00:55 38.4 °F /  3.6 °C 36.6 °F /  2.6 °C 30.20 in /  1022.6 hPa Calm     93 % 0.00 in /  0 mm
01:00 38.2 °F /  3.4 °C 36.6 °F /  2.6 °C 30.20 in /  1022.6 hPa Calm     94 % 0.00 in /  0 mm
01:10 37.5 °F /  3.1 °C 35.7 °F /  2.1 °C 30.20 in /  1022.6 hPa Calm     93 % 0.00 in /  0 mm
01:20 37.1 °F /  2.8 °C 35.3 °F /  1.8 °C 30.20 in /  1022.6 hPa Calm     93 % 0.00 in /  0 mm
01:25 37.0 °F /  2.8 °C 35.2 °F /  1.8 °C 30.20 in /  1022.6 hPa Calm     93 % 0.00 in /  0 mm
01:30 37.0 °F /  2.8 °C 35.4 °F /  1.9 °C 30.20 in /  1022.6 hPa Calm     94 % 0.00 in /  0 mm
01:35 36.6 °F /  2.6 °C 34.8 °F /  1.6 °C 30.20 in /  1022.6 hPa Calm     93 % 0.00 in /  0 mm
01:40 36.5 °F /  2.5 °C 34.7 °F /  1.5 °C 30.20 in /  1022.6 hPa Calm     93 % 0.00 in /  0 mm
01:45 36.5 °F /  2.5 °C 34.9 °F /  1.6 °C 30.20 in /  1022.6 hPa Calm     94 % 0.00 in /  0 mm
01:50 36.7 °F /  2.6 °C 35.1 °F /  1.7 °C 30.20 in /  1022.6 hPa Calm     94 % 0.00 in /  0 mm
01:55 36.8 °F /  2.7 °C 35.2 °F /  1.8 °C 30.20 in /  1022.6 hPa Calm     94 % 0.00 in /  0 mm
02:00 36.9 °F /  2.7 °C 35.3 °F /  1.8 °C 30.20 in /  1022.6 hPa Calm     94 % 0.00 in /  0 mm
02:05 37.1 °F /  2.8 °C 35.5 °F /  1.9 °C 30.20 in /  1022.6 hPa Calm   0.4 mph /  0.6 km/h 94 % 0.00 in /  0 mm
02:10 37.3 °F /  2.9 °C 36.0 °F /  2.2 °C 30.20 in /  1022.6 hPa Calm     95 % 0.00 in /  0 mm
02:15 37.5 °F /  3.1 °C 36.2 °F /  2.3 °C 30.20 in /  1022.6 hPa Calm     95 % 0.00 in /  0 mm
02:20 37.6 °F /  3.1 °C 36.3 °F /  2.4 °C 30.19 in /  1022.2 hPa Calm     95 % 0.00 in /  0 mm
02:25 37.9 °F /  3.3 °C 36.6 °F /  2.6 °C 30.19 in /  1022.2 hPa Calm     95 % 0.00 in /  0 mm
02:30 38.1 °F /  3.4 °C 36.8 °F /  2.7 °C 30.19 in /  1022.2 hPa Calm     95 % 0.00 in /  0 mm
02:36 38.2 °F /  3.4 °C 36.9 °F /  2.7 °C 30.19 in /  1022.2 hPa Calm     95 % 0.00 in /  0 mm
02:41 38.2 °F /  3.4 °C 36.9 °F /  2.7 °C 30.19 in /  1022.2 hPa Calm     95 % 0.00 in /  0 mm
02:46 38.2 °F /  3.4 °C 36.9 °F /  2.7 °C 30.19 in /  1022.2 hPa Calm     95 % 0.00 in /  0 mm
02:51 38.0 °F /  3.3 °C 36.7 °F /  2.6 °C 30.18 in /  1021.9 hPa Calm     95 % 0.00 in /  0 mm
02:56 37.9 °F /  3.3 °C 36.6 °F /  2.6 °C 30.18 in /  1021.9 hPa Calm     95 % 0.00 in /  0 mm
03:01 37.8 °F /  3.2 °C 36.5 °F /  2.5 °C 30.18 in /  1021.9 hPa Calm     95 % 0.00 in /  0 mm
03:06 37.6 °F /  3.1 °C 36.3 °F /  2.4 °C 30.18 in /  1021.9 hPa Calm     95 % 0.00 in /  0 mm
03:11 37.1 °F /  2.8 °C 35.8 °F /  2.1 °C 30.18 in /  1021.9 hPa Calm     95 % 0.00 in /  0 mm
03:16 36.8 °F /  2.7 °C 35.2 °F /  1.8 °C 30.18 in /  1021.9 hPa Calm     94 % 0.00 in /  0 mm
03:21 37.0 °F /  2.8 °C 35.7 °F /  2.1 °C 30.18 in /  1021.9 hPa Calm     95 % 0.00 in /  0 mm
03:26 37.3 °F /  2.9 °C 36.0 °F /  2.2 °C 30.18 in /  1021.9 hPa Calm     95 % 0.00 in /  0 mm
03:31 37.3 °F /  2.9 °C 36.0 °F /  2.2 °C 30.18 in /  1021.9 hPa Calm     95 % 0.00 in /  0 mm
03:36 37.1 °F /  2.8 °C 35.8 °F /  2.1 °C 30.18 in /  1021.9 hPa Calm     95 % 0.00 in /  0 mm
03:41 36.6 °F /  2.6 °C 35.3 °F /  1.8 °C 30.18 in /  1021.9 hPa Calm     95 % 0.00 in /  0 mm
03:46 36.2 °F /  2.3 °C 34.6 °F /  1.4 °C 30.18 in /  1021.9 hPa Calm     94 % 0.00 in /  0 mm
03:51 36.4 °F /  2.4 °C 35.1 °F /  1.7 °C 30.18 in /  1021.9 hPa Calm     95 % 0.00 in /  0 mm
03:56 36.8 °F /  2.7 °C 35.5 °F /  1.9 °C 30.18 in /  1021.9 hPa Calm     95 % 0.00 in /  0 mm
04:01 37.1 °F /  2.8 °C 35.8 °F /  2.1 °C 30.18 in /  1021.9 hPa Calm     95 % 0.00 in /  0 mm
04:06 37.1 °F /  2.8 °C 35.8 °F /  2.1 °C 30.18 in /  1021.9 hPa Calm     95 % 0.00 in /  0 mm
04:11 37.1 °F /  2.8 °C 35.8 °F /  2.1 °C 30.18 in /  1021.9 hPa Calm     95 % 0.00 in /  0 mm
04:16 37.2 °F /  2.9 °C 35.9 °F /  2.2 °C 30.18 in /  1021.9 hPa Calm     95 % 0.00 in /  0 mm
04:21 37.2 °F /  2.9 °C 35.9 °F /  2.2 °C 30.18 in /  1021.9 hPa Calm     95 % 0.00 in /  0 mm
04:26 37.1 °F /  2.8 °C 35.8 °F /  2.1 °C 30.18 in /  1021.9 hPa Calm     95 % 0.00 in /  0 mm
04:31 37.1 °F /  2.8 °C 35.8 °F /  2.1 °C 30.18 in /  1021.9 hPa Calm     95 % 0.00 in /  0 mm
04:36 37.0 °F /  2.8 °C 35.7 °F /  2.1 °C 30.18 in /  1021.9 hPa Calm     95 % 0.00 in /  0 mm
04:41 37.0 °F /  2.8 °C 35.7 °F /  2.1 °C 30.18 in /  1021.9 hPa Calm     95 % 0.00 in /  0 mm
04:46 37.2 °F /  2.9 °C 36.2 °F /  2.3 °C 30.18 in /  1021.9 hPa Calm     96 % 0.00 in /  0 mm
04:51 37.3 °F /  2.9 °C 36.3 °F /  2.4 °C 30.18 in /  1021.9 hPa Calm     96 % 0.00 in /  0 mm
04:56 37.1 °F /  2.8 °C 36.1 °F /  2.3 °C 30.18 in /  1021.9 hPa Calm     96 % 0.00 in /  0 mm
05:01 37.0 °F /  2.8 °C 35.7 °F /  2.1 °C 30.18 in /  1021.9 hPa Calm     95 % 0.00 in /  0 mm
05:12 36.7 °F /  2.6 °C 35.4 °F /  1.9 °C 30.18 in /  1021.9 hPa Calm     95 % 0.00 in /  0 mm
05:17 36.3 °F /  2.4 °C 35.0 °F /  1.7 °C 30.18 in /  1021.9 hPa Calm     95 % 0.00 in /  0 mm
05:22 35.9 °F /  2.2 °C 34.6 °F /  1.4 °C 30.18 in /  1021.9 hPa Calm     95 % 0.00 in /  0 mm
05:27 35.6 °F /  2 °C 34.3 °F /  1.3 °C 30.18 in /  1021.9 hPa Calm     95 % 0.00 in /  0 mm
05:32 35.4 °F /  1.9 °C 34.1 °F /  1.2 °C 30.18 in /  1021.9 hPa Calm     95 % 0.00 in /  0 mm
05:37 35.1 °F /  1.7 °C 33.8 °F /  1 °C 30.18 in /  1021.9 hPa Calm     95 % 0.00 in /  0 mm
05:42 34.8 °F /  1.6 °C 33.5 °F /  0.8 °C 30.18 in /  1021.9 hPa Calm     95 % 0.00 in /  0 mm
05:47 34.5 °F /  1.4 °C 33.2 °F /  0.7 °C 30.18 in /  1021.9 hPa Calm     95 % 0.00 in /  0 mm
05:57 34.2 °F /  1.2 °C 32.9 °F /  0.5 °C 30.18 in /  1021.9 hPa Calm     95 % 0.00 in /  0 mm
06:07 34.4 °F /  1.3 °C 33.1 °F /  0.6 °C 30.18 in /  1021.9 hPa Calm     95 % 0.00 in /  0 mm
06:17 34.8 °F /  1.6 °C 33.5 °F /  0.8 °C 30.17 in /  1021.6 hPa Calm     95 % 0.00 in /  0 mm
06:22 34.9 °F /  1.6 °C 33.9 °F /  1.1 °C 30.17 in /  1021.6 hPa Calm     96 % 0.00 in /  0 mm
06:27 34.9 °F /  1.6 °C 33.9 °F /  1.1 °C 30.17 in /  1021.6 hPa Calm     96 % 0.00 in /  0 mm
06:32 34.8 °F /  1.6 °C 33.5 °F /  0.8 °C 30.17 in /  1021.6 hPa Calm     95 % 0.00 in /  0 mm
06:37 34.7 °F /  1.5 °C 33.4 °F /  0.8 °C 30.17 in /  1021.6 hPa Calm     95 % 0.00 in /  0 mm
06:42 34.7 °F /  1.5 °C 33.7 °F /  0.9 °C 30.18 in /  1021.9 hPa Calm     96 % 0.00 in /  0 mm
06:57 34.3 °F /  1.3 °C 33.0 °F /  0.6 °C 30.18 in /  1021.9 hPa Calm     95 % 0.00 in /  0 mm
07:02 34.3 °F /  1.3 °C 33.0 °F /  0.6 °C 30.17 in /  1021.6 hPa Calm     95 % 0.00 in /  0 mm
07:08 34.4 °F /  1.3 °C 33.4 °F /  0.8 °C 30.17 in /  1021.6 hPa Calm     96 % 0.00 in /  0 mm
07:13 34.4 °F /  1.3 °C 33.4 °F /  0.8 °C 30.17 in /  1021.6 hPa Calm     96 % 0.00 in /  0 mm
07:18 34.4 °F /  1.3 °C 33.4 °F /  0.8 °C 30.17 in /  1021.6 hPa Calm     96 % 0.00 in /  0 mm
07:23 34.4 °F /  1.3 °C 33.4 °F /  0.8 °C 30.17 in /  1021.6 hPa Calm     96 % 0.00 in /  0 mm
07:38 34.5 °F /  1.4 °C 33.5 °F /  0.8 °C 30.17 in /  1021.6 hPa Calm     96 % 0.00 in /  0 mm
07:43 34.8 °F /  1.6 °C 33.8 °F /  1 °C 30.17 in /  1021.6 hPa Calm     96 % 0.00 in /  0 mm
07:48 35.3 °F /  1.8 °C 34.3 °F /  1.3 °C 30.17 in /  1021.6 hPa Calm     96 % 0.00 in /  0 mm
07:53 35.6 °F /  2 °C 34.6 °F /  1.4 °C 30.18 in /  1021.9 hPa Calm     96 % 0.00 in /  0 mm
08:03 37.1 °F /  2.8 °C 36.1 °F /  2.3 °C 30.17 in /  1021.6 hPa Calm     96 % 0.00 in /  0 mm
08:08 37.9 °F /  3.3 °C 36.9 °F /  2.7 °C 30.18 in /  1021.9 hPa Calm     96 % 0.01 in /  0.25 mm
08:13 38.6 °F /  3.7 °C 37.6 °F /  3.1 °C 30.18 in /  1021.9 hPa Calm     96 % 0.01 in /  0.25 mm
08:28 40.5 °F /  4.7 °C 39.7 °F /  4.3 °C 30.18 in /  1021.9 hPa Calm     97 % 0.01 in /  0.25 mm
08:33 41.2 °F /  5.1 °C 40.4 °F /  4.7 °C 30.18 in /  1021.9 hPa Calm     97 % 0.01 in /  0.25 mm
08:38 41.9 °F /  5.5 °C 41.1 °F /  5.1 °C 30.18 in /  1021.9 hPa Calm     97 % 0.01 in /  0.25 mm
08:43 42.7 °F /  5.9 °C 41.9 °F /  5.5 °C 30.19 in /  1022.2 hPa Calm     97 % 0.01 in /  0.25 mm
08:48 43.3 °F /  6.3 °C 42.5 °F /  5.8 °C 30.18 in /  1021.9 hPa Calm     97 % 0.01 in /  0.25 mm
08:58 45.8 °F /  7.7 °C 45.0 °F /  7.2 °C 30.18 in /  1021.9 hPa Calm     97 % 0.01 in /  0.25 mm
09:13 47.9 °F /  8.8 °C 44.8 °F /  7.1 °C 30.18 in /  1021.9 hPa Calm     89 % 0.00 in /  0 mm
09:18 48.8 °F /  9.3 °C 45.4 °F /  7.4 °C 30.18 in /  1021.9 hPa Calm     88 % 0.00 in /  0 mm
09:23 49.9 °F /  9.9 °C 45.6 °F /  7.6 °C 30.17 in /  1021.6 hPa ESE 1.2 mph /  1.9 km/h 1.2 mph /  1.9 km/h 85 % 0.00 in /  0 mm
09:33 51.4 °F /  10.8 °C 46.4 °F /  8 °C 30.17 in /  1021.6 hPa Calm     83 % 0.00 in /  0 mm
09:48 53.1 °F /  11.7 °C 46.8 °F /  8.2 °C 30.17 in /  1021.6 hPa Calm     79 % 0.00 in /  0 mm
09:53 52.7 °F /  11.5 °C 45.7 °F /  7.6 °C 30.17 in /  1021.6 hPa Calm   0.1 mph /  0.2 km/h 77 % 0.00 in /  0 mm
09:58 52.5 °F /  11.4 °C 46.2 °F /  7.9 °C 30.17 in /  1021.6 hPa West 1.2 mph /  1.9 km/h 1.2 mph /  1.9 km/h 79 % 0.00 in /  0 mm
10:03 52.6 °F /  11.4 °C 45.9 °F /  7.7 °C 30.17 in /  1021.6 hPa WNW 1.2 mph /  1.9 km/h   78 % 0.00 in /  0 mm
10:08 53.0 °F /  11.7 °C 46.3 °F /  7.9 °C 30.17 in /  1021.6 hPa North 1.2 mph /  1.9 km/h 1.2 mph /  1.9 km/h 78 % 0.00 in /  0 mm
10:13 53.0 °F /  11.7 °C 46.0 °F /  7.8 °C 30.17 in /  1021.6 hPa WNW 1.2 mph /  1.9 km/h 1.2 mph /  1.9 km/h 77 % 0.00 in /  0 mm
10:24 53.9 °F /  12.2 °C 46.9 °F /  8.3 °C 30.17 in /  1021.6 hPa Calm     77 % 0.00 in /  0 mm
10:29 54.4 °F /  12.4 °C 46.3 °F /  7.9 °C 30.17 in /  1021.6 hPa Calm     74 % 0.00 in /  0 mm
10:34 54.8 °F /  12.7 °C 45.9 °F /  7.7 °C 30.17 in /  1021.6 hPa Calm     72 % 0.00 in /  0 mm
10:39 55.2 °F /  12.9 °C 46.3 °F /  7.9 °C 30.16 in /  1021.2 hPa NW 1.2 mph /  1.9 km/h 1.2 mph /  1.9 km/h 72 % 0.00 in /  0 mm
10:54 57.3 °F /  14.1 °C 47.6 °F /  8.7 °C 30.16 in /  1021.2 hPa South 1.2 mph /  1.9 km/h 1.2 mph /  1.9 km/h 70 % 0.00 in /  0 mm
10:59 58.2 °F /  14.6 °C 47.3 °F /  8.5 °C 30.15 in /  1020.9 hPa SE 1.2 mph /  1.9 km/h 1.2 mph /  1.9 km/h 67 % 0.00 in /  0 mm
11:04 59.1 °F /  15.1 °C 46.1 °F /  7.8 °C 30.15 in /  1020.9 hPa ESE 1.2 mph /  1.9 km/h 1.2 mph /  1.9 km/h 62 % 0.00 in /  0 mm
11:09 59.6 °F /  15.3 °C 47.0 °F /  8.3 °C 30.15 in /  1020.9 hPa SE 1.2 mph /  1.9 km/h 1.2 mph /  1.9 km/h 63 % 0.00 in /  0 mm
11:19 60.7 °F /  15.9 °C 47.6 °F /  8.7 °C 30.14 in /  1020.5 hPa Calm     62 % 0.00 in /  0 mm
11:24 60.8 °F /  16 °C 46.4 °F /  8 °C 30.14 in /  1020.5 hPa East 1.2 mph /  1.9 km/h 1.2 mph /  1.9 km/h 59 % 0.00 in /  0 mm
11:29 60.9 °F /  16.1 °C 47.4 °F /  8.6 °C 30.13 in /  1020.2 hPa NNE 1.2 mph /  1.9 km/h 1.2 mph /  1.9 km/h 61 % 0.00 in /  0 mm
11:34 61.7 °F /  16.5 °C 47.2 °F /  8.4 °C 30.13 in /  1020.2 hPa SSE 1.2 mph /  1.9 km/h 1.2 mph /  1.9 km/h 59 % 0.00 in /  0 mm
11:39 62.0 °F /  16.7 °C 47.5 °F /  8.6 °C 30.13 in /  1020.2 hPa SSE 1.2 mph /  1.9 km/h 1.2 mph /  1.9 km/h 59 % 0.00 in /  0 mm
11:44 61.9 °F /  16.6 °C 47.4 °F /  8.6 °C 30.12 in /  1019.9 hPa SE 1.2 mph /  1.9 km/h   59 % 0.00 in /  0 mm
11:49 62.1 °F /  16.7 °C 48.0 °F /  8.9 °C 30.12 in /  1019.9 hPa SE 1.2 mph /  1.9 km/h   60 % 0.00 in /  0 mm
11:54 62.4 °F /  16.9 °C 47.9 °F /  8.8 °C 30.12 in /  1019.9 hPa SE 1.2 mph /  1.9 km/h 1.2 mph /  1.9 km/h 59 % 0.00 in /  0 mm
11:59 62.5 °F /  16.9 °C 46.6 °F /  8.1 °C 30.11 in /  1019.5 hPa NW 1.0 mph /  1.6 km/h 1.0 mph /  1.6 km/h 56 % 0.00 in /  0 mm
12:05 62.4 °F /  16.9 °C 46.0 °F /  7.8 °C 30.11 in /  1019.5 hPa NW 1.2 mph /  1.9 km/h 1.2 mph /  1.9 km/h 55 % 0.00 in /  0 mm
12:10 62.4 °F /  16.9 °C 45.0 °F /  7.2 °C 30.11 in /  1019.5 hPa Calm     53 % 0.00 in /  0 mm
12:25 63.3 °F /  17.4 °C 43.3 °F /  6.3 °C 30.10 in /  1019.2 hPa Calm     48 % 0.00 in /  0 mm
12:35 64.0 °F /  17.8 °C 43.9 °F /  6.6 °C 30.10 in /  1019.2 hPa NW 2.0 mph /  3.2 km/h 2.0 mph /  3.2 km/h 48 % 0.00 in /  0 mm
12:40 64.4 °F /  18 °C 43.7 °F /  6.5 °C 30.10 in /  1019.2 hPa NW 3.5 mph /  5.6 km/h 3.5 mph /  5.6 km/h 47 % 0.00 in /  0 mm
12:45 64.5 °F /  18.1 °C 43.8 °F /  6.6 °C 30.10 in /  1019.2 hPa NNE 3.0 mph /  4.8 km/h 3.0 mph /  4.8 km/h 47 % 0.00 in /  0 mm
12:50 64.6 °F /  18.1 °C 43.9 °F /  6.6 °C 30.09 in /  1018.8 hPa West 1.2 mph /  1.9 km/h 1.2 mph /  1.9 km/h 47 % 0.00 in /  0 mm
12:55 64.9 °F /  18.3 °C 43.0 °F /  6.1 °C 30.09 in /  1018.8 hPa WNW 1.2 mph /  1.9 km/h 1.2 mph /  1.9 km/h 45 % 0.00 in /  0 mm
13:00 64.9 °F /  18.3 °C 43.6 °F /  6.4 °C 30.09 in /  1018.8 hPa Calm     46 % 0.00 in /  0 mm
13:05 64.9 °F /  18.3 °C 42.5 °F /  5.8 °C 30.08 in /  1018.5 hPa Calm     44 % 0.00 in /  0 mm
13:10 64.9 °F /  18.3 °C 42.5 °F /  5.8 °C 30.08 in /  1018.5 hPa Calm     44 % 0.00 in /  0 mm
13:15 64.8 °F /  18.2 °C 41.8 °F /  5.4 °C 30.08 in /  1018.5 hPa Calm     43 % 0.00 in /  0 mm
13:20 64.9 °F /  18.3 °C 43.0 °F /  6.1 °C 30.07 in /  1018.2 hPa Calm     45 % 0.00 in /  0 mm
13:25 65.0 °F /  18.3 °C 42.5 °F /  5.8 °C 30.07 in /  1018.2 hPa Calm     44 % 0.00 in /  0 mm
13:30 65.0 °F /  18.3 °C 41.9 °F /  5.5 °C 30.07 in /  1018.2 hPa Calm     43 % 0.00 in /  0 mm
13:35 65.2 °F /  18.4 °C 42.1 °F /  5.6 °C 30.06 in /  1017.8 hPa Calm     43 % 0.00 in /  0 mm
13:40 65.5 °F /  18.6 °C 43.6 °F /  6.4 °C 30.06 in /  1017.8 hPa SE 1.2 mph /  1.9 km/h   45 % 0.00 in /  0 mm
13:45 65.7 °F /  18.7 °C 43.8 °F /  6.6 °C 30.06 in /  1017.8 hPa Calm     45 % 0.00 in /  0 mm
13:50 65.9 °F /  18.8 °C 43.4 °F /  6.3 °C 30.06 in /  1017.8 hPa Calm     44 % 0.00 in /  0 mm
13:55 66.1 °F /  18.9 °C 43.5 °F /  6.4 °C 30.06 in /  1017.8 hPa SE 1.2 mph /  1.9 km/h   44 % 0.00 in /  0 mm
14:00 66.2 °F /  19 °C 43.0 °F /  6.1 °C 30.05 in /  1017.5 hPa Calm     43 % 0.00 in /  0 mm
14:05 66.0 °F /  18.9 °C 42.2 °F /  5.7 °C 30.05 in /  1017.5 hPa Calm     42 % 0.00 in /  0 mm
14:10 66.0 °F /  18.9 °C 41.6 °F /  5.3 °C 30.05 in /  1017.5 hPa NW 1.2 mph /  1.9 km/h 1.2 mph /  1.9 km/h 41 % 0.00 in /  0 mm
14:15 66.0 °F /  18.9 °C 42.2 °F /  5.7 °C 30.05 in /  1017.5 hPa Calm     42 % 0.00 in /  0 mm
14:20 66.2 °F /  19 °C 42.4 °F /  5.8 °C 30.05 in /  1017.5 hPa NW 1.2 mph /  1.9 km/h   42 % 0.00 in /  0 mm
14:25 66.4 °F /  19.1 °C 42.0 °F /  5.6 °C 30.05 in /  1017.5 hPa NNW 1.0 mph /  1.6 km/h 1.0 mph /  1.6 km/h 41 % 0.00 in /  0 mm
14:30 66.4 °F /  19.1 °C 42.6 °F /  5.9 °C 30.04 in /  1017.2 hPa Calm     42 % 0.00 in /  0 mm
14:35 66.5 °F /  19.2 °C 43.3 °F /  6.3 °C 30.04 in /  1017.2 hPa WNW 1.2 mph /  1.9 km/h 1.2 mph /  1.9 km/h 43 % 0.00 in /  0 mm
14:40 66.5 °F /  19.2 °C 43.3 °F /  6.3 °C 30.04 in /  1017.2 hPa Calm     43 % 0.00 in /  0 mm
14:45 66.5 °F /  19.2 °C 43.9 °F /  6.6 °C 30.04 in /  1017.2 hPa Calm     44 % 0.00 in /  0 mm
14:50 66.6 °F /  19.2 °C 44.6 °F /  7 °C 30.04 in /  1017.2 hPa Calm   0.1 mph /  0.2 km/h 45 % 0.00 in /  0 mm
14:55 66.6 °F /  19.2 °C 45.2 °F /  7.3 °C 30.04 in /  1017.2 hPa NW 1.0 mph /  1.6 km/h 1.0 mph /  1.6 km/h 46 % 0.00 in /  0 mm
15:00 66.5 °F /  19.2 °C 44.5 °F /  6.9 °C 30.04 in /  1017.2 hPa Calm     45 % 0.00 in /  0 mm
15:05 66.4 °F /  19.1 °C 45.0 °F /  7.2 °C 30.04 in /  1017.2 hPa Calm     46 % 0.00 in /  0 mm
15:10 66.3 °F /  19.1 °C 44.9 °F /  7.2 °C 30.03 in /  1016.8 hPa Calm     46 % 0.00 in /  0 mm
15:15 66.3 °F /  19.1 °C 44.9 °F /  7.2 °C 30.03 in /  1016.8 hPa Calm     46 % 0.00 in /  0 mm
15:21 66.2 °F /  19 °C 44.2 °F /  6.8 °C 30.03 in /  1016.8 hPa Calm     45 % 0.00 in /  0 mm
15:26 66.1 °F /  18.9 °C 44.1 °F /  6.7 °C 30.03 in /  1016.8 hPa Calm     45 % 0.00 in /  0 mm
15:31 66.0 °F /  18.9 °C 44.0 °F /  6.7 °C 30.03 in /  1016.8 hPa Calm     45 % 0.00 in /  0 mm
15:36 66.0 °F /  18.9 °C 43.5 °F /  6.4 °C 30.03 in /  1016.8 hPa Calm     44 % 0.00 in /  0 mm
15:41 66.0 °F /  18.9 °C 44.6 °F /  7 °C 30.03 in /  1016.8 hPa Calm     46 % 0.00 in /  0 mm
15:46 65.8 °F /  18.8 °C 43.3 °F /  6.3 °C 30.03 in /  1016.8 hPa Calm     44 % 0.00 in /  0 mm
15:51 65.7 °F /  18.7 °C 43.8 °F /  6.6 °C 30.03 in /  1016.8 hPa Calm     45 % 0.00 in /  0 mm
15:56 65.5 °F /  18.6 °C 43.6 °F /  6.4 °C 30.03 in /  1016.8 hPa Calm     45 % 0.00 in /  0 mm
16:01 65.3 °F /  18.5 °C 44.0 °F /  6.7 °C 30.03 in /  1016.8 hPa Calm     46 % 0.00 in /  0 mm
16:06 65.1 °F /  18.4 °C 44.4 °F /  6.9 °C 30.03 in /  1016.8 hPa Calm     47 % 0.00 in /  0 mm
16:10 64.9 °F /  18.3 °C 44.7 °F /  7.1 °C 30.03 in /  1016.8 hPa Calm     48 % 0.00 in /  0 mm
16:15 64.5 °F /  18.1 °C 44.4 °F /  6.9 °C 30.03 in /  1016.8 hPa Calm     48 % 0.00 in /  0 mm
16:20 64.3 °F /  17.9 °C 44.7 °F /  7.1 °C 30.03 in /  1016.8 hPa Calm     49 % 0.00 in /  0 mm
16:25 64.0 °F /  17.8 °C 45.0 °F /  7.2 °C 30.03 in /  1016.8 hPa Calm     50 % 0.00 in /  0 mm
16:31 63.7 °F /  17.6 °C 44.7 °F /  7.1 °C 30.03 in /  1016.8 hPa Calm     50 % 0.00 in /  0 mm
16:36 63.4 °F /  17.4 °C 44.9 °F /  7.2 °C 30.03 in /  1016.8 hPa Calm     51 % 0.00 in /  0 mm
16:41 63.0 °F /  17.2 °C 45.1 °F /  7.3 °C 30.03 in /  1016.8 hPa Calm     52 % 0.00 in /  0 mm
16:46 62.8 °F /  17.1 °C 45.4 °F /  7.4 °C 30.03 in /  1016.8 hPa Calm     53 % 0.00 in /  0 mm
16:51 62.5 °F /  16.9 °C 45.6 °F /  7.6 °C 30.03 in /  1016.8 hPa Calm     54 % 0.00 in /  0 mm
16:56 62.0 °F /  16.7 °C 45.2 °F /  7.3 °C 30.03 in /  1016.8 hPa Calm     54 % 0.00 in /  0 mm
17:01 61.7 °F /  16.5 °C 46.3 °F /  7.9 °C 30.03 in /  1016.8 hPa Calm     57 % 0.00 in /  0 mm
17:06 61.3 °F /  16.3 °C 45.9 °F /  7.7 °C 30.03 in /  1016.8 hPa Calm     57 % 0.00 in /  0 mm
17:11 61.0 °F /  16.1 °C 45.7 °F /  7.6 °C 30.03 in /  1016.8 hPa Calm     57 % 0.00 in /  0 mm
17:16 60.9 °F /  16.1 °C 46.0 °F /  7.8 °C 30.03 in /  1016.8 hPa Calm     58 % 0.00 in /  0 mm
17:21 60.6 °F /  15.9 °C 45.7 °F /  7.6 °C 30.03 in /  1016.8 hPa Calm     58 % 0.00 in /  0 mm
17:26 60.3 °F /  15.7 °C 45.5 °F /  7.5 °C 30.03 in /  1016.8 hPa Calm     58 % 0.00 in /  0 mm
17:31 60.3 °F /  15.7 °C 45.9 °F /  7.7 °C 30.03 in /  1016.8 hPa Calm     59 % 0.00 in /  0 mm
17:36 60.0 °F /  15.6 °C 46.9 °F /  8.3 °C 30.03 in /  1016.8 hPa Calm     62 % 0.00 in /  0 mm
17:41 58.9 °F /  14.9 °C 46.3 °F /  7.9 °C 30.03 in /  1016.8 hPa Calm     63 % 0.00 in /  0 mm
17:46 59.0 °F /  15 °C 46.0 °F /  7.8 °C 30.03 in /  1016.8 hPa Calm     62 % 0.00 in /  0 mm
17:51 59.1 °F /  15.1 °C 46.1 °F /  7.8 °C 30.03 in /  1016.8 hPa Calm     62 % 0.00 in /  0 mm
17:56 58.6 °F /  14.8 °C 46.0 °F /  7.8 °C 30.03 in /  1016.8 hPa Calm     63 % 0.00 in /  0 mm
18:01 58.2 °F /  14.6 °C 46.5 °F /  8.1 °C 30.03 in /  1016.8 hPa Calm     65 % 0.00 in /  0 mm
18:06 57.4 °F /  14.1 °C 46.1 °F /  7.8 °C 30.03 in /  1016.8 hPa Calm     66 % 0.00 in /  0 mm
18:11 57.4 °F /  14.1 °C 46.1 °F /  7.8 °C 30.03 in /  1016.8 hPa Calm     66 % 0.00 in /  0 mm
18:16 57.5 °F /  14.2 °C 45.8 °F /  7.7 °C 30.03 in /  1016.8 hPa Calm     65 % 0.00 in /  0 mm
18:21 57.5 °F /  14.2 °C 45.8 °F /  7.7 °C 30.03 in /  1016.8 hPa Calm     65 % 0.00 in /  0 mm
18:26 57.6 °F /  14.2 °C 45.9 °F /  7.7 °C 30.03 in /  1016.8 hPa Calm     65 % 0.00 in /  0 mm
18:31 58.0 °F /  14.4 °C 46.3 °F /  7.9 °C 30.03 in /  1016.8 hPa Calm     65 % 0.00 in /  0 mm
18:36 58.1 °F /  14.5 °C 46.4 °F /  8 °C 30.03 in /  1016.8 hPa Calm     65 % 0.00 in /  0 mm
18:40 57.9 °F /  14.4 °C 45.8 °F /  7.7 °C 30.03 in /  1016.8 hPa Calm     64 % 0.00 in /  0 mm
18:45 57.9 °F /  14.4 °C 45.8 °F /  7.7 °C 30.03 in /  1016.8 hPa Calm     64 % 0.00 in /  0 mm
18:50 57.7 °F /  14.3 °C 45.6 °F /  7.6 °C 30.03 in /  1016.8 hPa Calm     64 % 0.00 in /  0 mm
18:55 57.6 °F /  14.2 °C 44.7 °F /  7.1 °C 30.03 in /  1016.8 hPa Calm     62 % 0.00 in /  0 mm
19:00 57.6 °F /  14.2 °C 44.7 °F /  7.1 °C 30.03 in /  1016.8 hPa Calm     62 % 0.00 in /  0 mm
19:05 57.6 °F /  14.2 °C 44.2 °F /  6.8 °C 30.02 in /  1016.5 hPa Calm     61 % 0.00 in /  0 mm
19:06 57.6 °F /  14.2 °C 44.7 °F /  7.1 °C 30.02 in /  1016.5 hPa Calm     62 % 0.00 in /  0 mm
19:11 57.6 °F /  14.2 °C 44.2 °F /  6.8 °C 30.02 in /  1016.5 hPa Calm     61 % 0.00 in /  0 mm
19:16 57.4 °F /  14.1 °C 44.5 °F /  6.9 °C 30.02 in /  1016.5 hPa Calm     62 % 0.00 in /  0 mm
19:21 57.0 °F /  13.9 °C 44.5 °F /  6.9 °C 30.02 in /  1016.5 hPa Calm     63 % 0.00 in /  0 mm
19:26 56.7 °F /  13.7 °C 44.2 °F /  6.8 °C 30.02 in /  1016.5 hPa Calm     63 % 0.00 in /  0 mm
19:31 56.4 °F /  13.6 °C 44.0 °F /  6.7 °C 30.02 in /  1016.5 hPa Calm     63 % 0.00 in /  0 mm
19:36 56.1 °F /  13.4 °C 44.1 °F /  6.7 °C 30.02 in /  1016.5 hPa Calm     64 % 0.00 in /  0 mm
19:41 55.7 °F /  13.2 °C 44.1 °F /  6.7 °C 30.02 in /  1016.5 hPa Calm     65 % 0.00 in /  0 mm
19:46 55.3 °F /  12.9 °C 43.7 °F /  6.5 °C 30.02 in /  1016.5 hPa Calm     65 % 0.00 in /  0 mm
19:51 54.7 °F /  12.6 °C 44.7 °F /  7.1 °C 30.02 in /  1016.5 hPa Calm     69 % 0.00 in /  0 mm
19:56 53.7 °F /  12.1 °C 44.5 °F /  6.9 °C 30.02 in /  1016.5 hPa Calm     71 % 0.00 in /  0 mm
20:01 53.0 °F /  11.7 °C 44.6 °F /  7 °C 30.02 in /  1016.5 hPa Calm     73 % 0.00 in /  0 mm
20:06 52.4 °F /  11.3 °C 44.4 °F /  6.9 °C 30.01 in /  1016.1 hPa Calm     74 % 0.00 in /  0 mm
20:11 51.9 °F /  11.1 °C 44.2 °F /  6.8 °C 30.01 in /  1016.1 hPa Calm     75 % 0.00 in /  0 mm
20:16 51.4 °F /  10.8 °C 44.1 °F /  6.7 °C 30.01 in /  1016.1 hPa Calm     76 % 0.00 in /  0 mm
20:21 51.0 °F /  10.6 °C 44.0 °F /  6.7 °C 30.02 in /  1016.5 hPa Calm     77 % 0.00 in /  0 mm
20:26 50.9 °F /  10.5 °C 44.3 °F /  6.8 °C 30.02 in /  1016.5 hPa Calm     78 % 0.00 in /  0 mm
20:31 50.7 °F /  10.4 °C 44.1 °F /  6.7 °C 30.02 in /  1016.5 hPa Calm     78 % 0.00 in /  0 mm
20:36 50.0 °F /  10 °C 43.7 °F /  6.5 °C 30.02 in /  1016.5 hPa Calm     79 % 0.00 in /  0 mm
20:41 49.4 °F /  9.7 °C 43.5 °F /  6.4 °C 30.02 in /  1016.5 hPa Calm     80 % 0.00 in /  0 mm
20:46 49.2 °F /  9.6 °C 43.3 °F /  6.3 °C 30.02 in /  1016.5 hPa Calm     80 % 0.00 in /  0 mm
20:51 49.2 °F /  9.6 °C 43.6 °F /  6.4 °C 30.03 in /  1016.8 hPa Calm     81 % 0.00 in /  0 mm
20:56 49.2 °F /  9.6 °C 43.6 °F /  6.4 °C 30.03 in /  1016.8 hPa Calm     81 % 0.00 in /  0 mm
21:01 49.3 °F /  9.6 °C 43.4 °F /  6.3 °C 30.03 in /  1016.8 hPa Calm     80 % 0.00 in /  0 mm
21:06 49.3 °F /  9.6 °C 43.4 °F /  6.3 °C 30.03 in /  1016.8 hPa Calm     80 % 0.00 in /  0 mm
21:11 49.4 °F /  9.7 °C 43.5 °F /  6.4 °C 30.03 in /  1016.8 hPa Calm     80 % 0.00 in /  0 mm
21:16 49.7 °F /  9.8 °C 43.8 °F /  6.6 °C 30.03 in /  1016.8 hPa Calm     80 % 0.00 in /  0 mm
21:21 49.4 °F /  9.7 °C 43.5 °F /  6.4 °C 30.02 in /  1016.5 hPa Calm     80 % 0.00 in /  0 mm
21:26 49.1 °F /  9.5 °C 43.2 °F /  6.2 °C 30.02 in /  1016.5 hPa Calm     80 % 0.00 in /  0 mm
21:31 49.3 °F /  9.6 °C 43.1 °F /  6.2 °C 30.03 in /  1016.8 hPa Calm     79 % 0.00 in /  0 mm
21:36 49.0 °F /  9.4 °C 43.1 °F /  6.2 °C 30.03 in /  1016.8 hPa Calm     80 % 0.00 in /  0 mm
21:41 49.0 °F /  9.4 °C 42.4 °F /  5.8 °C 30.03 in /  1016.8 hPa WNW 2.3 mph /  3.7 km/h   78 % 0.00 in /  0 mm
21:46 49.4 °F /  9.7 °C 42.8 °F /  6 °C 30.03 in /  1016.8 hPa West 1.2 mph /  1.9 km/h 1.2 mph /  1.9 km/h 78 % 0.00 in /  0 mm
21:51 49.3 °F /  9.6 °C 42.7 °F /  5.9 °C 30.04 in /  1017.2 hPa West 1.2 mph /  1.9 km/h 1.2 mph /  1.9 km/h 78 % 0.00 in /  0 mm
21:56 49.6 °F /  9.8 °C 42.7 °F /  5.9 °C 30.04 in /  1017.2 hPa Calm     77 % 0.00 in /  0 mm
22:01 49.6 °F /  9.8 °C 42.3 °F /  5.7 °C 30.04 in /  1017.2 hPa West 1.2 mph /  1.9 km/h   76 % 0.00 in /  0 mm
22:06 49.6 °F /  9.8 °C 42.3 °F /  5.7 °C 30.05 in /  1017.5 hPa Calm     76 % 0.00 in /  0 mm
22:11 50.1 °F /  10.1 °C 43.2 °F /  6.2 °C 30.05 in /  1017.5 hPa NNW 3.5 mph /  5.6 km/h 3.5 mph /  5.6 km/h 77 % 0.00 in /  0 mm
22:16 50.9 °F /  10.5 °C 43.9 °F /  6.6 °C 30.05 in /  1017.5 hPa NW 3.5 mph /  5.6 km/h 3.5 mph /  5.6 km/h 77 % 0.00 in /  0 mm
22:21 51.6 °F /  10.9 °C 45.0 °F /  7.2 °C 30.05 in /  1017.5 hPa West 3.5 mph /  5.6 km/h 3.5 mph /  5.6 km/h 78 % 0.00 in /  0 mm
22:26 51.7 °F /  10.9 °C 45.1 °F /  7.3 °C 30.05 in /  1017.5 hPa NNW 3.0 mph /  4.8 km/h 3.0 mph /  4.8 km/h 78 % 0.00 in /  0 mm
22:31 51.8 °F /  11 °C 45.2 °F /  7.3 °C 30.05 in /  1017.5 hPa NW 2.3 mph /  3.7 km/h 2.3 mph /  3.7 km/h 78 % 0.00 in /  0 mm
22:36 51.7 °F /  10.9 °C 45.1 °F /  7.3 °C 30.05 in /  1017.5 hPa NNW 2.3 mph /  3.7 km/h 2.3 mph /  3.7 km/h 78 % 0.00 in /  0 mm
22:41 51.7 °F /  10.9 °C 45.4 °F /  7.4 °C 30.05 in /  1017.5 hPa NW 3.5 mph /  5.6 km/h 3.5 mph /  5.6 km/h 79 % 0.00 in /  0 mm
22:46 51.6 °F /  10.9 °C 45.3 °F /  7.4 °C 30.05 in /  1017.5 hPa WNW 2.0 mph /  3.2 km/h 2.0 mph /  3.2 km/h 79 % 0.00 in /  0 mm
22:51 51.5 °F /  10.8 °C 45.2 °F /  7.3 °C 30.05 in /  1017.5 hPa WNW 3.5 mph /  5.6 km/h 3.5 mph /  5.6 km/h 79 % 0.00 in /  0 mm
22:56 51.4 °F /  10.8 °C 45.4 °F /  7.4 °C 30.05 in /  1017.5 hPa NW 2.3 mph /  3.7 km/h 2.3 mph /  3.7 km/h 80 % 0.00 in /  0 mm
23:01 51.2 °F /  10.7 °C 45.2 °F /  7.3 °C 30.05 in /  1017.5 hPa NW 1.0 mph /  1.6 km/h 1.0 mph /  1.6 km/h 80 % 0.00 in /  0 mm
23:06 51.0 °F /  10.6 °C 45.4 °F /  7.4 °C 30.05 in /  1017.5 hPa NW 1.2 mph /  1.9 km/h   81 % 0.00 in /  0 mm
23:12 50.8 °F /  10.4 °C 45.2 °F /  7.3 °C 30.05 in /  1017.5 hPa West 1.2 mph /  1.9 km/h 1.2 mph /  1.9 km/h 81 % 0.00 in /  0 mm
23:17 50.6 °F /  10.3 °C 45.3 °F /  7.4 °C 30.05 in /  1017.5 hPa NW 1.2 mph /  1.9 km/h 1.2 mph /  1.9 km/h 82 % 0.00 in /  0 mm
23:22 50.3 °F /  10.2 °C 45.3 °F /  7.4 °C 30.05 in /  1017.5 hPa NW 4.6 mph /  7.4 km/h 4.6 mph /  7.4 km/h 83 % 0.00 in /  0 mm
23:27 50.3 °F /  10.2 °C 45.6 °F /  7.6 °C 30.05 in /  1017.5 hPa NW 4.6 mph /  7.4 km/h 4.6 mph /  7.4 km/h 84 % 0.00 in /  0 mm
23:32 50.5 °F /  10.3 °C 45.8 °F /  7.7 °C 30.04 in /  1017.2 hPa NW 6.9 mph /  11.1 km/h 6.9 mph /  11.1 km/h 84 % 0.00 in /  0 mm
23:37 50.8 °F /  10.4 °C 45.8 °F /  7.7 °C 30.04 in /  1017.2 hPa SW 4.6 mph /  7.4 km/h 4.6 mph /  7.4 km/h 83 % 0.00 in /  0 mm
23:42 50.8 °F /  10.4 °C 45.5 °F /  7.5 °C 30.04 in /  1017.2 hPa NW 3.5 mph /  5.6 km/h 3.5 mph /  5.6 km/h 82 % 0.00 in /  0 mm
23:47 50.9 °F /  10.5 °C 45.6 °F /  7.6 °C 30.04 in /  1017.2 hPa NNW 3.5 mph /  5.6 km/h 3.5 mph /  5.6 km/h 82 % 0.00 in /  0 mm
23:52 51.0 °F /  10.6 °C 45.7 °F /  7.6 °C 30.04 in /  1017.2 hPa WNW 4.6 mph /  7.4 km/h 4.6 mph /  7.4 km/h 82 % 0.00 in /  0 mm
23:57 51.1 °F /  10.6 °C 45.5 °F /  7.5 °C 30.04 in /  1017.2 hPa NW 3.5 mph /  5.6 km/h 3.5 mph /  5.6 km/h 81 % 0.00 in /  0 mm
Park Place, Exeter, Tulare County, California, USA
Compliments of Weather Underground - 2.5 mb